createdAt,value
2022-08-28T00:01:33.000Z,95452.63
2022-08-28T00:04:04.604Z,95460.78
2022-08-28T00:06:34.100Z,95472.47
2022-08-28T00:09:03.823Z,95459.19
2022-08-28T00:11:33.590Z,95457.41
2022-08-28T00:14:09.274Z,95452.88
2022-08-28T00:16:39.152Z,95452.72
2022-08-28T00:19:10.946Z,95445.88
2022-08-28T00:21:40.688Z,95450.50
2022-08-28T00:24:11.096Z,95449.38
2022-08-28T00:26:58.776Z,95449.53
2022-08-28T00:29:29.135Z,95449.72
2022-08-28T00:31:58.820Z,95442.69
2022-08-28T00:34:33.312Z,95443.31
2022-08-28T00:37:03.521Z,95445.72
2022-08-28T00:39:37.226Z,95445.72
2022-08-28T00:42:07.982Z,95446.03
2022-08-28T00:44:39.173Z,95450.34
2022-08-28T00:47:10.175Z,95450.84
2022-08-28T00:49:51.051Z,95451.03
2022-08-28T00:52:22.132Z,95455.03
2022-08-28T00:54:59.100Z,95455.53
2022-08-28T00:57:36.125Z,95454.91
2022-08-28T01:00:09.065Z,95458.13
2022-08-28T01:02:38.811Z,95455.91
2022-08-28T01:05:11.528Z,95453.19
2022-08-28T01:07:41.961Z,95455.91
2022-08-28T01:10:18.166Z,95451.88
2022-08-28T01:12:49.899Z,95445.66
2022-08-28T01:15:24.888Z,95449.16
2022-08-28T01:18:05.986Z,95448.84
2022-08-28T01:20:50.415Z,95440.41
2022-08-28T01:23:46.940Z,95437.50
2022-08-28T01:26:16.473Z,95441.63
2022-08-28T01:28:46.285Z,95442.25
2022-08-28T01:31:17.809Z,95439.03
2022-08-28T01:33:49.406Z,95435.53
2022-08-28T01:36:20.612Z,95436.63
2022-08-28T01:38:59.594Z,95434.22
2022-08-28T01:41:29.606Z,95434.22
2022-08-28T01:43:59.929Z,95442.06
2022-08-28T01:46:31.639Z,95442.38
2022-08-28T01:49:01.475Z,95437.88
2022-08-28T01:51:35.187Z,95442.34
2022-08-28T01:54:10.682Z,95437.53
2022-08-28T01:56:44.893Z,95436.72
2022-08-28T01:59:16.483Z,95434.59
2022-08-28T02:01:46.073Z,95435.72
2022-08-28T02:04:16.468Z,95436.50
2022-08-28T02:06:46.152Z,95435.41
2022-08-28T02:09:17.711Z,95439.22
2022-08-28T02:11:47.334Z,95431.41
2022-08-28T02:14:17.259Z,95436.03
2022-08-28T02:16:47.176Z,95436.81
2022-08-28T02:19:16.669Z,95442.25
2022-08-28T02:21:46.253Z,95436.03
2022-08-28T02:24:18.045Z,95436.81
2022-08-28T02:26:47.652Z,95431.41
2022-08-28T02:29:18.549Z,95436.03
2022-08-28T02:31:48.014Z,95440.66
2022-08-28T02:34:17.493Z,95441.47
2022-08-28T02:36:47.897Z,95430.91
2022-08-28T02:39:18.907Z,95435.84
2022-08-28T02:41:48.539Z,95426.09
2022-08-28T02:44:18.251Z,95426.88
2022-08-28T02:46:47.770Z,95434.22
2022-08-28T02:49:17.288Z,95431.50
2022-08-28T02:51:46.837Z,95432.94
2022-08-28T02:54:16.371Z,95430.22
2022-08-28T02:56:49.665Z,95434.84
2022-08-28T02:59:19.327Z,95441.59
2022-08-28T03:01:49.412Z,95433.94
2022-08-28T03:04:19.480Z,95428.19
2022-08-28T03:06:49.813Z,95429.47
2022-08-28T03:09:19.284Z,95430.59
2022-08-28T03:11:50.116Z,95420.53
2022-08-28T03:14:19.969Z,95426.75
2022-08-28T03:16:50.428Z,95426.75
2022-08-28T03:19:20.322Z,95428.69
2022-08-28T03:21:49.900Z,95420.84
2022-08-28T03:24:21.520Z,95434.41
2022-08-28T03:26:52.683Z,95434.72
2022-08-28T03:29:22.161Z,95438.25
2022-08-28T03:31:51.695Z,95434.72
2022-08-28T03:34:21.248Z,95442.38
2022-08-28T03:36:50.884Z,95440.78
2022-08-28T03:39:20.453Z,95447.81
2022-08-28T03:41:51.452Z,95452.94
2022-08-28T03:44:20.959Z,95444.00
2022-08-28T03:46:50.921Z,95447.81
2022-08-28T03:49:21.181Z,95452.44
2022-08-28T03:51:50.685Z,95451.66
2022-08-28T03:54:20.125Z,95451.66
2022-08-28T03:56:52.059Z,95451.34
2022-08-28T03:59:21.636Z,95446.22
2022-08-28T04:01:56.160Z,95453.25
2022-08-28T04:04:26.141Z,95451.94
2022-08-28T04:06:55.628Z,95453.88
2022-08-28T04:09:25.223Z,95452.56
2022-08-28T04:11:56.065Z,95451.75
2022-08-28T04:14:25.588Z,95445.53
2022-08-28T04:16:57.589Z,95448.25
2022-08-28T04:19:35.247Z,95455.28
2022-08-28T04:22:05.568Z,95449.84
2022-08-28T04:24:35.569Z,95454.47
2022-08-28T04:27:06.770Z,95451.47
2022-08-28T04:29:36.365Z,95456.88
2022-08-28T04:32:06.608Z,95460.09
2022-08-28T04:34:39.212Z,95452.75
2022-08-28T04:37:09.568Z,95457.88
2022-08-28T04:39:39.911Z,95453.75
2022-08-28T04:42:11.348Z,95461.09
2022-08-28T04:44:41.032Z,95462.69
2022-08-28T04:47:11.052Z,95459.97
2022-08-28T04:49:42.003Z,95464.00
2022-08-28T04:52:11.704Z,95468.31
2022-08-28T04:54:41.405Z,95462.56
2022-08-28T04:57:12.861Z,95459.56
2022-08-28T04:59:44.951Z,95467.44
2022-08-28T05:02:14.547Z,95466.31
2022-08-28T05:04:44.092Z,95470.63
2022-08-28T05:07:13.615Z,95477.69
2022-08-28T05:09:43.124Z,95476.53
2022-08-28T05:12:17.244Z,95479.75
2022-08-28T05:14:46.777Z,95473.19
2022-08-28T05:17:18.470Z,95472.41
2022-08-28T05:19:49.545Z,95480.06
2022-08-28T05:22:23.297Z,95476.88
2022-08-28T05:24:53.720Z,95477.69
2022-08-28T05:27:27.896Z,95479.59
2022-08-28T05:30:01.927Z,95481.50
2022-08-28T05:32:34.495Z,95491.28
2022-08-28T05:35:07.839Z,95495.91
2022-08-28T05:37:37.472Z,95489.81
2022-08-28T05:40:10.513Z,95499.88
2022-08-28T05:42:41.384Z,95496.84
2022-08-28T05:45:11.833Z,95487.09
2022-08-28T05:47:41.292Z,95489.81
2022-08-28T05:50:13.609Z,95498.78
2022-08-28T05:52:45.967Z,95497.34
2022-08-28T05:55:15.741Z,95507.31
2022-08-28T05:57:46.641Z,95503.16
2022-08-28T06:00:18.402Z,95502.06
2022-08-28T06:02:47.890Z,95499.03
2022-08-28T06:05:20.040Z,95500.31
2022-08-28T06:07:49.752Z,95507.56
2022-08-28T06:10:19.412Z,95512.38
2022-08-28T06:12:50.493Z,95511.56
2022-08-28T06:15:19.976Z,95506.63
2022-08-28T06:17:49.810Z,95508.22
2022-08-28T06:20:19.432Z,95505.16
2022-08-28T06:22:51.870Z,95511.25
2022-08-28T06:25:21.333Z,95512.88
2022-08-28T06:27:52.262Z,95512.53
2022-08-28T06:30:21.777Z,95514.94
2022-08-28T06:32:51.368Z,95516.53
2022-08-28T06:35:21.771Z,95520.06
2022-08-28T06:37:51.315Z,95517.84
2022-08-28T06:40:20.875Z,95520.75
2022-08-28T06:42:51.921Z,95523.66
2022-08-28T06:45:21.575Z,95513.75
2022-08-28T06:47:51.085Z,95525.13
2022-08-28T06:50:23.165Z,95527.22
2022-08-28T06:52:52.657Z,95527.41
2022-08-28T06:55:22.126Z,95527.41
2022-08-28T06:57:53.032Z,95531.72
2022-08-28T07:00:24.181Z,95532.84
2022-08-28T07:02:53.804Z,95541.47
2022-08-28T07:05:23.625Z,95536.53
2022-08-28T07:07:53.396Z,95543.25
2022-08-28T07:10:24.245Z,95537.19
2022-08-28T07:12:55.418Z,95542.31
2022-08-28T07:15:24.956Z,95542.50
2022-08-28T07:17:54.536Z,95540.78
2022-08-28T07:20:24.363Z,95547.50
2022-08-28T07:22:54.185Z,95544.97
2022-08-28T07:25:29.344Z,95545.28
2022-08-28T07:28:00.978Z,95545.16
2022-08-28T07:30:30.642Z,95549.66
2022-08-28T07:33:00.145Z,95554.00
2022-08-28T07:35:29.722Z,95555.81
2022-08-28T07:37:59.277Z,95556.63
2022-08-28T07:40:28.813Z,95554.06
2022-08-28T07:43:17.436Z,95555.69
2022-08-28T07:45:46.965Z,95556.47
2022-08-28T07:48:16.790Z,95556.47
2022-08-28T07:50:50.826Z,95565.44
2022-08-28T07:53:20.472Z,95563.34
2022-08-28T07:55:52.082Z,95568.94
2022-08-28T07:58:25.321Z,95573.03
2022-08-28T08:00:55.800Z,95576.41
2022-08-28T08:03:25.635Z,95574.78
2022-08-28T08:05:57.828Z,95579.44
2022-08-28T08:08:27.915Z,95585.81
2022-08-28T08:11:01.243Z,95584.19
2022-08-28T08:13:33.719Z,95586.13
2022-08-28T08:16:08.199Z,95584.50
2022-08-28T08:18:37.998Z,95584.81
2022-08-28T08:21:12.172Z,95592.22
2022-08-28T08:23:42.637Z,95592.22
2022-08-28T08:26:16.601Z,95588.34
2022-08-28T08:28:50.420Z,95594.94
2022-08-28T08:31:24.634Z,95591.41
2022-08-28T08:34:01.367Z,95598.75
2022-08-28T08:36:35.735Z,95601.50
2022-08-28T08:39:09.628Z,95596.19
2022-08-28T08:41:48.054Z,95593.97
2022-08-28T08:44:33.491Z,95601.00
2022-08-28T08:47:15.242Z,95608.56
2022-08-28T08:49:54.173Z,95600.88
2022-08-28T08:52:39.884Z,95611.47
2022-08-28T08:55:24.874Z,95617.91
2022-08-28T08:58:03.967Z,95621.31
2022-08-28T09:00:44.874Z,95612.22
2022-08-28T09:03:22.608Z,95624.56
2022-08-28T09:05:57.366Z,95627.44
2022-08-28T09:08:41.577Z,95633.25
2022-08-28T09:11:31.627Z,95633.94
2022-08-28T09:14:08.573Z,95631.88
2022-08-28T09:16:45.694Z,95635.53
2022-08-28T09:19:22.122Z,95629.47
2022-08-28T09:21:53.004Z,95640.06
2022-08-28T09:24:28.323Z,95635.41
2022-08-28T09:27:04.056Z,95632.38
2022-08-28T09:29:37.652Z,95640.84
2022-08-28T09:32:24.771Z,95639.25
2022-08-28T09:35:13.337Z,95643.09
2022-08-28T09:37:45.114Z,95642.28
2022-08-28T09:40:26.081Z,95637.31
2022-08-28T09:43:28.225Z,95640.22
2022-08-28T09:46:04.020Z,95631.91
2022-08-28T09:48:39.284Z,95640.56
2022-08-28T09:51:12.468Z,95641.38
2022-08-28T09:54:01.335Z,95639.63
2022-08-28T09:56:39.306Z,95642.53
2022-08-28T09:59:13.701Z,95651.66
2022-08-28T10:02:01.192Z,95659.50
2022-08-28T10:04:52.625Z,95651.47
2022-08-28T10:07:39.109Z,95656.78
2022-08-28T10:10:29.772Z,95654.69
2022-08-28T10:13:11.379Z,95663.19
2022-08-28T10:16:09.511Z,95664.59
2022-08-28T10:18:47.141Z,95672.47
2022-08-28T10:21:28.252Z,95663.97
2022-08-28T10:24:31.215Z,95667.50
2022-08-28T10:27:14.069Z,95660.63
2022-08-28T10:30:07.772Z,95661.13
2022-08-28T10:33:07.437Z,95663.03
2022-08-28T10:35:52.140Z,95660.81
2022-08-28T10:38:36.640Z,95665.59
2022-08-28T10:41:12.037Z,95664.78
2022-08-28T10:43:48.198Z,95664.97
2022-08-28T10:46:34.907Z,95661.44
2022-08-28T10:49:09.866Z,95672.31
2022-08-28T10:51:47.433Z,95667.69
2022-08-28T10:54:26.849Z,95672.81
2022-08-28T10:57:07.046Z,95682.09
2022-08-28T10:59:42.055Z,95671.34
2022-08-28T11:02:16.461Z,95673.94
2022-08-28T11:04:49.256Z,95681.16
2022-08-28T11:07:31.477Z,95673.47
2022-08-28T11:10:42.010Z,95678.63
2022-08-28T11:13:11.904Z,95677.50
2022-08-28T11:15:53.317Z,95678.16
2022-08-28T11:19:28.217Z,95677.53
2022-08-28T11:22:08.788Z,95678.81
2022-08-28T11:24:52.873Z,95675.78
2022-08-28T11:27:31.309Z,95679.63
2022-08-28T11:30:34.395Z,95687.00
2022-08-28T11:33:38.106Z,95678.19
2022-08-28T11:36:14.529Z,95688.47
2022-08-28T11:39:21.916Z,95670.69
2022-08-28T11:42:38.548Z,95678.72
2022-08-28T11:45:09.461Z,95680.31
2022-08-28T11:47:52.126Z,95679.19
2022-08-28T11:50:53.292Z,95678.38
2022-08-28T11:53:47.174Z,95686.75
2022-08-28T11:56:51.964Z,95680.47
2022-08-28T12:00:06.569Z,95684.00
2022-08-28T12:02:53.224Z,95682.56
2022-08-28T12:05:52.204Z,95683.22
2022-08-28T12:09:12.865Z,95690.94
2022-08-28T12:11:59.265Z,95686.09
2022-08-28T12:15:08.531Z,95687.41
2022-08-28T12:17:54.225Z,95682.75
2022-08-28T12:21:01.090Z,95680.66
2022-08-28T12:23:44.450Z,95674.22
2022-08-28T12:26:26.187Z,95685.78
2022-08-28T12:28:59.565Z,95681.13
2022-08-28T12:32:21.966Z,95679.03
2022-08-28T12:35:16.519Z,95675.34
2022-08-28T12:38:01.001Z,95679.69
2022-08-28T12:40:53.488Z,95678.25
2022-08-28T12:43:40.938Z,95680.81
2022-08-28T12:46:23.492Z,95674.88
2022-08-28T12:48:58.636Z,95686.78
2022-08-28T12:51:33.545Z,95679.56
2022-08-28T12:54:07.611Z,95680.34
2022-08-28T12:56:39.623Z,95679.38
2022-08-28T12:59:27.187Z,95679.72
2022-08-28T13:02:05.724Z,95683.22
2022-08-28T13:04:40.453Z,95685.81
2022-08-28T13:07:16.022Z,95682.59
2022-08-28T13:09:52.566Z,95686.44
2022-08-28T13:12:32.013Z,95686.75
2022-08-28T13:15:53.298Z,95682.53
2022-08-28T13:18:55.421Z,95681.72
2022-08-28T13:21:35.325Z,95689.06
2022-08-28T13:24:38.554Z,95689.84
2022-08-28T13:27:24.762Z,95693.09
2022-08-28T13:30:28.638Z,95684.94
2022-08-28T13:33:04.459Z,95684.09
2022-08-28T13:35:41.169Z,95682.13
2022-08-28T13:38:16.008Z,95678.41
2022-08-28T13:40:57.984Z,95685.28
2022-08-28T13:43:44.023Z,95675.13
2022-08-28T13:46:13.757Z,95666.28
2022-08-28T13:48:44.825Z,95677.22
2022-08-28T13:51:20.827Z,95675.63
2022-08-28T13:53:51.328Z,95676.56
2022-08-28T13:56:22.124Z,95670.28
2022-08-28T13:58:57.524Z,95667.88
2022-08-28T14:01:48.143Z,95671.72
2022-08-28T14:04:18.280Z,95663.28
2022-08-28T14:06:47.812Z,95667.13
2022-08-28T14:09:17.711Z,95669.53
2022-08-28T14:11:49.616Z,95678.97
2022-08-28T14:14:19.122Z,95675.09
2022-08-28T14:16:50.322Z,95670.25
2022-08-28T14:19:21.901Z,95671.47
2022-08-28T14:21:51.498Z,95669.34
2022-08-28T14:24:21.164Z,95667.25
2022-08-28T14:26:54.844Z,95678.75
2022-08-28T14:29:24.349Z,95670.72
2022-08-28T14:31:53.977Z,95671.00
2022-08-28T14:34:25.113Z,95662.69
2022-08-28T14:36:55.996Z,95663.69
2022-08-28T14:39:28.642Z,95657.28
2022-08-28T14:41:58.663Z,95660.47
2022-08-28T14:44:28.243Z,95656.84
2022-08-28T14:46:58.147Z,95652.69
2022-08-28T14:49:29.257Z,95651.88
2022-08-28T14:51:58.769Z,95655.59
2022-08-28T14:54:28.557Z,95649.94
2022-08-28T14:56:58.202Z,95652.91
2022-08-28T14:59:32.160Z,95649.00
2022-08-28T15:02:02.467Z,95646.59
2022-08-28T15:04:37.763Z,95643.94
2022-08-28T15:07:12.816Z,95647.63
2022-08-28T15:09:43.968Z,95647.59
2022-08-28T15:12:13.549Z,95640.94
2022-08-28T15:14:57.203Z,95634.28
2022-08-28T15:17:33.511Z,95633.75
2022-08-28T15:20:08.003Z,95643.47
2022-08-28T15:22:37.557Z,95641.09
2022-08-28T15:25:08.342Z,95639.16
2022-08-28T15:27:38.532Z,95639.72
2022-08-28T15:30:11.451Z,95643.97
2022-08-28T15:32:42.926Z,95646.16
2022-08-28T15:35:15.353Z,95647.91
2022-08-28T15:37:45.078Z,95649.63
2022-08-28T15:40:35.058Z,95645.75
2022-08-28T15:43:04.641Z,95647.25
2022-08-28T15:45:38.267Z,95643.13
2022-08-28T15:48:08.320Z,95635.63
2022-08-28T15:50:40.184Z,95640.47
2022-08-28T15:53:11.019Z,95645.47
2022-08-28T15:55:40.578Z,95639.59
2022-08-28T15:58:13.982Z,95644.06
2022-08-28T16:00:44.072Z,95639.50
2022-08-28T16:03:13.888Z,95644.38
2022-08-28T16:05:45.377Z,95633.47
2022-08-28T16:08:14.916Z,95624.78
2022-08-28T16:10:49.853Z,95632.22
2022-08-28T16:13:22.104Z,95634.44
2022-08-28T16:15:51.789Z,95634.97
2022-08-28T16:18:21.690Z,95629.09
2022-08-28T16:20:52.630Z,95637.91
2022-08-28T16:23:22.152Z,95631.16
2022-08-28T16:25:51.714Z,95638.97
2022-08-28T16:28:21.260Z,95633.69
2022-08-28T16:30:51.097Z,95636.97
2022-08-28T16:33:22.248Z,95635.22
2022-08-28T16:35:56.290Z,95623.41
2022-08-28T16:38:26.829Z,95636.28
2022-08-28T16:40:56.363Z,95634.78
2022-08-28T16:43:26.129Z,95632.09
2022-08-28T16:45:56.265Z,95640.84
2022-08-28T16:48:25.913Z,95638.88
2022-08-28T16:50:57.069Z,95647.94
2022-08-28T16:53:27.342Z,95646.53
2022-08-28T16:55:59.028Z,95640.47
2022-08-28T16:58:28.866Z,95641.34
2022-08-28T17:00:58.486Z,95646.84
2022-08-28T17:03:28.417Z,95656.59
2022-08-28T17:06:09.793Z,95655.72
2022-08-28T17:08:39.722Z,95659.63
2022-08-28T17:11:10.384Z,95656.16
2022-08-28T17:13:40.174Z,95667.88
2022-08-28T17:16:09.953Z,95670.00
2022-08-28T17:18:48.138Z,95671.44
2022-08-28T17:21:55.673Z,95671.66
2022-08-28T17:24:25.327Z,95661.38
2022-08-28T17:26:55.242Z,95670.72
2022-08-28T17:29:24.873Z,95670.72
2022-08-28T17:31:54.425Z,95675.22
2022-08-28T17:34:28.082Z,95673.63
2022-08-28T17:37:01.192Z,95673.81
2022-08-28T17:39:30.717Z,95682.69
2022-08-28T17:42:00.305Z,95674.97
2022-08-28T17:44:29.799Z,95683.66
2022-08-28T17:46:59.393Z,95670.97
2022-08-28T17:49:29.069Z,95674.03
2022-08-28T17:51:59.932Z,95677.09
2022-08-28T17:54:29.976Z,95684.69
2022-08-28T17:56:59.685Z,95685.50
2022-08-28T17:59:29.828Z,95691.28
2022-08-28T18:01:59.540Z,95689.78
2022-08-28T18:04:29.313Z,95693.19
2022-08-28T18:07:01.805Z,95693.03
2022-08-28T18:09:31.329Z,95694.00
2022-08-28T18:12:00.959Z,95689.00
2022-08-28T18:14:31.190Z,95698.47
2022-08-28T18:17:00.974Z,95696.88
2022-08-28T18:19:30.673Z,95699.59
2022-08-28T18:22:01.545Z,95701.50
2022-08-28T18:24:31.117Z,95710.00
2022-08-28T18:27:01.969Z,95708.06
2022-08-28T18:29:31.909Z,95708.34
2022-08-28T18:32:01.955Z,95705.91
2022-08-28T18:34:31.973Z,95713.25
2022-08-28T18:37:02.870Z,95711.28
2022-08-28T18:39:32.472Z,95721.06
2022-08-28T18:42:02.622Z,95718.16
2022-08-28T18:44:32.492Z,95724.41
2022-08-28T18:47:02.708Z,95732.53
2022-08-28T18:49:32.292Z,95734.72
2022-08-28T18:52:03.433Z,95737.72
2022-08-28T18:54:33.105Z,95745.03
2022-08-28T18:57:04.183Z,95741.63
2022-08-28T18:59:34.420Z,95749.44
2022-08-28T19:02:04.042Z,95760.75
2022-08-28T19:04:34.023Z,95757.63
2022-08-28T19:07:05.321Z,95756.63
2022-08-28T19:09:35.089Z,95756.25
2022-08-28T19:12:06.551Z,95759.44
2022-08-28T19:14:36.913Z,95762.25
2022-08-28T19:17:06.622Z,95768.63
2022-08-28T19:19:36.120Z,95760.56
2022-08-28T19:22:07.700Z,95765.81
2022-08-28T19:24:37.325Z,95769.78
2022-08-28T19:27:06.984Z,95758.72
2022-08-28T19:29:36.803Z,95769.69
2022-08-28T19:32:08.164Z,95760.84
2022-08-28T19:34:38.108Z,95763.16
2022-08-28T19:37:12.197Z,95768.72
2022-08-28T19:39:41.742Z,95767.53
2022-08-28T19:42:17.242Z,95771.44
2022-08-28T19:44:51.022Z,95774.56
2022-08-28T19:47:24.537Z,95774.69
2022-08-28T19:49:55.314Z,95772.88
2022-08-28T19:52:28.052Z,95775.66
2022-08-28T19:54:57.486Z,95772.75
2022-08-28T19:57:27.046Z,95770.63
2022-08-28T19:59:56.561Z,95785.13
2022-08-28T20:02:26.103Z,95782.19
2022-08-28T20:04:55.740Z,95789.03
2022-08-28T20:07:26.817Z,95785.03
2022-08-28T20:09:56.399Z,95796.50
2022-08-28T20:12:26.229Z,95795.19
2022-08-28T20:15:00.059Z,95797.38
2022-08-28T20:17:33.117Z,95804.72
2022-08-28T20:20:06.269Z,95801.72
2022-08-28T20:22:38.446Z,95800.63
2022-08-28T20:25:10.350Z,95794.38
2022-08-28T20:27:40.328Z,95791.44
2022-08-28T20:30:11.491Z,95792.34
2022-08-28T20:32:41.571Z,95791.63
2022-08-28T20:35:15.333Z,95796.38
2022-08-28T20:37:46.635Z,95791.81
2022-08-28T20:40:19.925Z,95791.09
2022-08-28T20:42:50.197Z,95786.25
2022-08-28T20:45:22.196Z,95787.97
2022-08-28T20:47:52.608Z,95782.59
2022-08-28T20:50:25.540Z,95787.03
2022-08-28T20:52:57.115Z,95785.50
2022-08-28T20:55:27.377Z,95788.00
2022-08-28T20:57:57.189Z,95788.09
2022-08-28T21:00:26.968Z,95785.16
2022-08-28T21:02:56.437Z,95790.38
2022-08-28T21:05:26.345Z,95789.63
2022-08-28T21:07:57.268Z,95791.88
2022-08-28T21:10:27.022Z,95799.75
2022-08-28T21:12:56.475Z,95793.81
2022-08-28T21:15:26.081Z,95795.50
2022-08-28T21:17:55.621Z,95800.72
2022-08-28T21:20:25.943Z,95798.88
2022-08-28T21:22:58.570Z,95802.16
2022-08-28T21:25:28.233Z,95796.53
2022-08-28T21:27:57.756Z,95802.56
2022-08-28T21:30:30.922Z,95805.56
2022-08-28T21:33:00.419Z,95802.91
2022-08-28T21:35:30.110Z,95795.66
2022-08-28T21:38:01.118Z,95798.66
2022-08-28T21:40:30.620Z,95803.84
2022-08-28T21:43:01.250Z,95799.31
2022-08-28T21:45:30.727Z,95811.53
2022-08-28T21:48:00.686Z,95804.81
2022-08-28T21:50:30.250Z,95802.69
2022-08-28T21:53:02.285Z,95804.06
2022-08-28T21:55:31.797Z,95797.31
2022-08-28T21:58:01.320Z,95795.19
2022-08-28T22:00:31.400Z,95795.25
2022-08-28T22:03:01.289Z,95798.84
2022-08-28T22:05:31.027Z,95802.13
2022-08-28T22:08:01.910Z,95796.50
2022-08-28T22:10:31.892Z,95802.50
2022-08-28T22:13:01.456Z,95803.59
2022-08-28T22:15:31.296Z,95799.56
2022-08-28T22:18:01.747Z,95802.56
2022-08-28T22:20:31.605Z,95807.97
2022-08-28T22:23:11.068Z,95802.03
2022-08-28T22:25:43.240Z,95811.53
2022-08-28T22:28:12.938Z,95809.13
2022-08-28T22:30:43.088Z,95809.13
2022-08-28T22:33:12.845Z,95806.13
2022-08-28T22:35:42.375Z,95806.94
2022-08-28T22:38:13.407Z,95798.53
2022-08-28T22:40:43.096Z,95798.28
2022-08-28T22:43:12.685Z,95799.94
2022-08-28T22:45:43.469Z,95801.63
2022-08-28T22:48:14.406Z,95797.59
2022-08-28T22:50:45.704Z,95802.47
2022-08-28T22:53:18.404Z,95797.97
2022-08-28T22:55:47.917Z,95803.66
2022-08-28T22:58:17.449Z,95802.84
2022-08-28T23:00:47.150Z,95802.59
2022-08-28T23:03:16.987Z,95806.97
2022-08-28T23:05:46.849Z,95808.63
2022-08-28T23:08:17.964Z,95818.13
2022-08-28T23:10:58.889Z,95812.19
2022-08-28T23:13:29.337Z,95812.47
2022-08-28T23:15:59.608Z,95817.34
2022-08-28T23:18:29.796Z,95813.34
2022-08-28T23:21:01.204Z,95805.78
2022-08-28T23:23:32.256Z,95820.19
2022-08-28T23:26:01.780Z,95813.16
2022-08-28T23:28:31.357Z,95809.94
2022-08-28T23:31:00.836Z,95812.69
2022-08-28T23:33:30.374Z,95813.25
2022-08-28T23:36:00.111Z,95810.81
2022-08-28T23:38:31.229Z,95804.88
2022-08-28T23:41:02.025Z,95811.09
2022-08-28T23:43:32.877Z,95808.41
2022-08-28T23:46:02.428Z,95809.47
2022-08-28T23:48:32.090Z,95811.97
2022-08-28T23:51:01.622Z,95813.06
2022-08-28T23:53:32.505Z,95806.59
2022-08-28T23:56:05.824Z,95802.56
2022-08-28T23:58:36.353Z,95801.25
